sensor_id;sensor_type;location;lat;lon;timestamp;temperature;humidity
78704;SHT31;68034;51.966;5.676;2024-01-10T00:02:08;1.1;43.1
78704;SHT31;68034;51.966;5.676;2024-01-10T00:04:36;1.1;42.7
78704;SHT31;68034;51.966;5.676;2024-01-10T00:07:07;1.0;42.5
78704;SHT31;68034;51.966;5.676;2024-01-10T00:09:36;1.0;42.5
78704;SHT31;68034;51.966;5.676;2024-01-10T00:12:05;1.0;43.7
78704;SHT31;68034;51.966;5.676;2024-01-10T00:14:34;0.9;42.8
78704;SHT31;68034;51.966;5.676;2024-01-10T00:17:03;0.9;43.1
78704;SHT31;68034;51.966;5.676;2024-01-10T00:19:31;0.9;43.9
78704;SHT31;68034;51.966;5.676;2024-01-10T00:22:00;0.8;45.0
78704;SHT31;68034;51.966;5.676;2024-01-10T00:24:29;0.8;44.3
78704;SHT31;68034;51.966;5.676;2024-01-10T00:26:57;0.8;44.7
78704;SHT31;68034;51.966;5.676;2024-01-10T00:29:26;0.8;44.9
78704;SHT31;68034;51.966;5.676;2024-01-10T00:31:55;0.8;44.3
78704;SHT31;68034;51.966;5.676;2024-01-10T00:34:25;0.8;44.2
78704;SHT31;68034;51.966;5.676;2024-01-10T00:36:55;0.8;44.2
78704;SHT31;68034;51.966;5.676;2024-01-10T00:39:23;0.8;44.7
78704;SHT31;68034;51.966;5.676;2024-01-10T00:41:52;0.8;45.1
78704;SHT31;68034;51.966;5.676;2024-01-10T00:44:21;0.8;45.4
78704;SHT31;68034;51.966;5.676;2024-01-10T00:46:50;0.8;45.0
78704;SHT31;68034;51.966;5.676;2024-01-10T00:49:18;0.8;46.0
78704;SHT31;68034;51.966;5.676;2024-01-10T00:51:47;0.8;45.7
78704;SHT31;68034;51.966;5.676;2024-01-10T00:54:16;0.8;44.7
78704;SHT31;68034;51.966;5.676;2024-01-10T00:56:45;0.8;46.1
78704;SHT31;68034;51.966;5.676;2024-01-10T00:59:14;0.8;45.6
78704;SHT31;68034;51.966;5.676;2024-01-10T01:01:43;0.7;46.2
78704;SHT31;68034;51.966;5.676;2024-01-10T01:04:11;0.7;45.7
78704;SHT31;68034;51.966;5.676;2024-01-10T01:06:40;0.7;45.2
78704;SHT31;68034;51.966;5.676;2024-01-10T01:09:11;0.7;45.5
78704;SHT31;68034;51.966;5.676;2024-01-10T01:11:42;0.6;44.0
78704;SHT31;68034;51.966;5.676;2024-01-10T01:14:11;0.6;44.8
78704;SHT31;68034;51.966;5.676;2024-01-10T01:16:39;0.6;45.7
78704;SHT31;68034;51.966;5.676;2024-01-10T01:19:08;0.6;44.9
78704;SHT31;68034;51.966;5.676;2024-01-10T01:21:37;0.6;44.4
78704;SHT31;68034;51.966;5.676;2024-01-10T01:24:06;0.6;45.3
78704;SHT31;68034;51.966;5.676;2024-01-10T01:26:34;0.6;46.2
78704;SHT31;68034;51.966;5.676;2024-01-10T01:29:03;0.6;46.1
78704;SHT31;68034;51.966;5.676;2024-01-10T01:31:32;0.6;44.3
78704;SHT31;68034;51.966;5.676;2024-01-10T01:34:01;0.6;45.6
78704;SHT31;68034;51.966;5.676;2024-01-10T01:36:29;0.6;44.5
78704;SHT31;68034;51.966;5.676;2024-01-10T01:38:58;0.6;44.5
78704;SHT31;68034;51.966;5.676;2024-01-10T01:41:27;0.6;45.2
78704;SHT31;68034;51.966;5.676;2024-01-10T01:43:56;0.6;44.2
78704;SHT31;68034;51.966;5.676;2024-01-10T01:46:24;0.6;44.5
78704;SHT31;68034;51.966;5.676;2024-01-10T01:48:55;0.6;44.8
78704;SHT31;68034;51.966;5.676;2024-01-10T01:51:26;0.6;45.2
78704;SHT31;68034;51.966;5.676;2024-01-10T01:53:56;0.6;46.0
78704;SHT31;68034;51.966;5.676;2024-01-10T01:56:28;0.6;45.2
78704;SHT31;68034;51.966;5.676;2024-01-10T01:58:56;0.6;46.0
78704;SHT31;68034;51.966;5.676;2024-01-10T02:01:26;0.5;46.9
78704;SHT31;68034;51.966;5.676;2024-01-10T02:03:55;0.5;45.4
78704;SHT31;68034;51.966;5.676;2024-01-10T02:06:24;0.5;45.3
78704;SHT31;68034;51.966;5.676;2024-01-10T02:08:53;0.5;44.6
78704;SHT31;68034;51.966;5.676;2024-01-10T02:11:25;0.5;45.3
78704;SHT31;68034;51.966;5.676;2024-01-10T02:13:54;0.5;45.4
78704;SHT31;68034;51.966;5.676;2024-01-10T02:16:23;0.5;45.5
78704;SHT31;68034;51.966;5.676;2024-01-10T02:18:52;0.5;46.4
78704;SHT31;68034;51.966;5.676;2024-01-10T02:21:23;0.5;46.3
78704;SHT31;68034;51.966;5.676;2024-01-10T02:23:52;0.6;45.6
78704;SHT31;68034;51.966;5.676;2024-01-10T02:26:21;0.6;45.7
78704;SHT31;68034;51.966;5.676;2024-01-10T02:28:49;0.6;45.8
78704;SHT31;68034;51.966;5.676;2024-01-10T02:31:18;0.6;46.3
78704;SHT31;68034;51.966;5.676;2024-01-10T02:33:47;0.7;46.3
78704;SHT31;68034;51.966;5.676;2024-01-10T02:36:16;0.7;46.3
78704;SHT31;68034;51.966;5.676;2024-01-10T02:38:44;0.7;46.6
78704;SHT31;68034;51.966;5.676;2024-01-10T02:41:14;0.7;46.2
78704;SHT31;68034;51.966;5.676;2024-01-10T02:43:42;0.7;45.6
78704;SHT31;68034;51.966;5.676;2024-01-10T02:46:11;0.7;46.6
78704;SHT31;68034;51.966;5.676;2024-01-10T02:48:40;0.7;46.5
78704;SHT31;68034;51.966;5.676;2024-01-10T02:51:09;0.7;46.1
78704;SHT31;68034;51.966;5.676;2024-01-10T02:53:37;0.7;46.7
78704;SHT31;68034;51.966;5.676;2024-01-10T02:56:07;0.7;46.6
78704;SHT31;68034;51.966;5.676;2024-01-10T02:58:36;0.7;46.4
78704;SHT31;68034;51.966;5.676;2024-01-10T03:01:04;0.7;46.1
78704;SHT31;68034;51.966;5.676;2024-01-10T03:03:33;0.7;45.5
78704;SHT31;68034;51.966;5.676;2024-01-10T03:06:02;0.7;45.6
78704;SHT31;68034;51.966;5.676;2024-01-10T03:08:31;0.7;47.0
78704;SHT31;68034;51.966;5.676;2024-01-10T03:11:00;0.7;46.3
78704;SHT31;68034;51.966;5.676;2024-01-10T03:13:29;0.7;47.6
78704;SHT31;68034;51.966;5.676;2024-01-10T03:15:59;0.7;47.5
78704;SHT31;68034;51.966;5.676;2024-01-10T03:18:28;0.7;47.2
78704;SHT31;68034;51.966;5.676;2024-01-10T03:20:57;0.7;47.3
78704;SHT31;68034;51.966;5.676;2024-01-10T03:23:26;0.8;47.0
78704;SHT31;68034;51.966;5.676;2024-01-10T03:25:56;0.8;46.3
78704;SHT31;68034;51.966;5.676;2024-01-10T03:28:24;0.8;47.3
78704;SHT31;68034;51.966;5.676;2024-01-10T03:30:56;0.8;46.6
78704;SHT31;68034;51.966;5.676;2024-01-10T03:33:25;0.8;47.6
78704;SHT31;68034;51.966;5.676;2024-01-10T03:35:54;0.8;46.9
78704;SHT31;68034;51.966;5.676;2024-01-10T03:38:22;0.8;46.6
78704;SHT31;68034;51.966;5.676;2024-01-10T03:40:51;0.8;46.9
78704;SHT31;68034;51.966;5.676;2024-01-10T03:43:23;0.8;47.3
78704;SHT31;68034;51.966;5.676;2024-01-10T03:45:52;0.7;47.1
78704;SHT31;68034;51.966;5.676;2024-01-10T03:48:24;0.7;47.4
78704;SHT31;68034;51.966;5.676;2024-01-10T03:50:55;0.7;47.5
78704;SHT31;68034;51.966;5.676;2024-01-10T03:53:23;0.7;47.3
78704;SHT31;68034;51.966;5.676;2024-01-10T03:55:52;0.7;47.7
78704;SHT31;68034;51.966;5.676;2024-01-10T03:58:23;0.7;47.8
78704;SHT31;68034;51.966;5.676;2024-01-10T04:00:53;0.6;46.9
78704;SHT31;68034;51.966;5.676;2024-01-10T04:03:21;0.6;47.2
78704;SHT31;68034;51.966;5.676;2024-01-10T04:05:50;0.6;48.0
78704;SHT31;68034;51.966;5.676;2024-01-10T04:08:21;0.6;47.7
78704;SHT31;68034;51.966;5.676;2024-01-10T04:10:49;0.6;47.7
78704;SHT31;68034;51.966;5.676;2024-01-10T04:13:18;0.6;47.5
78704;SHT31;68034;51.966;5.676;2024-01-10T04:15:47;0.6;48.0
78704;SHT31;68034;51.966;5.676;2024-01-10T04:18:15;0.6;47.4
78704;SHT31;68034;51.966;5.676;2024-01-10T04:20:46;0.7;47.1
78704;SHT31;68034;51.966;5.676;2024-01-10T04:23:18;0.9;47.9
78704;SHT31;68034;51.966;5.676;2024-01-10T04:25:46;1.0;47.6
78704;SHT31;68034;51.966;5.676;2024-01-10T04:28:15;1.2;46.8
78704;SHT31;68034;51.966;5.676;2024-01-10T04:30:43;1.3;46.8
78704;SHT31;68034;51.966;5.676;2024-01-10T04:33:12;1.4;45.6
78704;SHT31;68034;51.966;5.676;2024-01-10T04:35:41;1.4;45.8
78704;SHT31;68034;51.966;5.676;2024-01-10T04:38:09;1.4;45.3
78704;SHT31;68034;51.966;5.676;2024-01-10T04:40:40;1.3;44.9
78704;SHT31;68034;51.966;5.676;2024-01-10T04:43:09;1.3;44.9
78704;SHT31;68034;51.966;5.676;2024-01-10T04:45:38;1.2;44.4
78704;SHT31;68034;51.966;5.676;2024-01-10T04:48:09;1.1;44.8
78704;SHT31;68034;51.966;5.676;2024-01-10T04:50:37;1.0;44.8
78704;SHT31;68034;51.966;5.676;2024-01-10T04:53:08;0.9;45.7
78704;SHT31;68034;51.966;5.676;2024-01-10T04:55:39;0.8;46.0
78704;SHT31;68034;51.966;5.676;2024-01-10T04:58:10;0.7;46.5
78704;SHT31;68034;51.966;5.676;2024-01-10T05:00:38;0.7;46.9
78704;SHT31;68034;51.966;5.676;2024-01-10T05:03:07;0.6;46.6
78704;SHT31;68034;51.966;5.676;2024-01-10T05:05:36;0.5;46.2
78704;SHT31;68034;51.966;5.676;2024-01-10T05:08:05;0.5;46.6
78704;SHT31;68034;51.966;5.676;2024-01-10T05:10:34;0.4;46.5
78704;SHT31;68034;51.966;5.676;2024-01-10T05:13:03;0.3;46.7
78704;SHT31;68034;51.966;5.676;2024-01-10T05:15:31;0.3;47.0
78704;SHT31;68034;51.966;5.676;2024-01-10T05:18:00;0.3;47.0
78704;SHT31;68034;51.966;5.676;2024-01-10T05:20:29;0.2;47.2
78704;SHT31;68034;51.966;5.676;2024-01-10T05:22:58;0.2;47.1
78704;SHT31;68034;51.966;5.676;2024-01-10T05:25:28;0.2;47.3
78704;SHT31;68034;51.966;5.676;2024-01-10T05:27:57;0.1;47.5
78704;SHT31;68034;51.966;5.676;2024-01-10T05:30:26;0.1;47.7
78704;SHT31;68034;51.966;5.676;2024-01-10T05:32:54;0.1;48.4
78704;SHT31;68034;51.966;5.676;2024-01-10T05:35:23;0.1;47.9
78704;SHT31;68034;51.966;5.676;2024-01-10T05:37:52;0.1;47.9
78704;SHT31;68034;51.966;5.676;2024-01-10T05:40:21;0.1;47.9
78704;SHT31;68034;51.966;5.676;2024-01-10T05:42:50;0.1;47.3
78704;SHT31;68034;51.966;5.676;2024-01-10T05:45:18;0.1;47.4
78704;SHT31;68034;51.966;5.676;2024-01-10T05:47:47;0.0;47.2
78704;SHT31;68034;51.966;5.676;2024-01-10T05:50:18;0.0;47.2
78704;SHT31;68034;51.966;5.676;2024-01-10T05:52:47;-0.0;47.2
78704;SHT31;68034;51.966;5.676;2024-01-10T05:55:16;-0.0;48.0
78704;SHT31;68034;51.966;5.676;2024-01-10T05:57:45;-0.0;48.0
78704;SHT31;68034;51.966;5.676;2024-01-10T06:00:15;-0.0;49.2
78704;SHT31;68034;51.966;5.676;2024-01-10T06:02:43;-0.0;49.1
78704;SHT31;68034;51.966;5.676;2024-01-10T06:05:13;-0.0;47.8
78704;SHT31;68034;51.966;5.676;2024-01-10T06:07:42;-0.0;49.0
78704;SHT31;68034;51.966;5.676;2024-01-10T06:10:11;-0.0;49.0
78704;SHT31;68034;51.966;5.676;2024-01-10T06:12:39;-0.0;48.5
78704;SHT31;68034;51.966;5.676;2024-01-10T06:15:09;0.0;48.5
78704;SHT31;68034;51.966;5.676;2024-01-10T06:17:38;0.0;47.6
78704;SHT31;68034;51.966;5.676;2024-01-10T06:20:07;0.1;47.7
78704;SHT31;68034;51.966;5.676;2024-01-10T06:22:36;0.1;47.6
78704;SHT31;68034;51.966;5.676;2024-01-10T06:25:06;0.1;48.9
78704;SHT31;68034;51.966;5.676;2024-01-10T06:27:35;0.1;48.5
78704;SHT31;68034;51.966;5.676;2024-01-10T06:30:07;0.1;47.7
78704;SHT31;68034;51.966;5.676;2024-01-10T06:32:36;0.2;48.0
78704;SHT31;68034;51.966;5.676;2024-01-10T06:35:06;0.2;47.9
78704;SHT31;68034;51.966;5.676;2024-01-10T06:37:37;0.2;47.5
78704;SHT31;68034;51.966;5.676;2024-01-10T06:40:07;0.2;46.9
78704;SHT31;68034;51.966;5.676;2024-01-10T06:42:37;0.2;46.6
78704;SHT31;68034;51.966;5.676;2024-01-10T06:45:07;0.2;46.7
78704;SHT31;68034;51.966;5.676;2024-01-10T06:47:37;0.2;47.4
78704;SHT31;68034;51.966;5.676;2024-01-10T06:50:06;0.2;47.3
78704;SHT31;68034;51.966;5.676;2024-01-10T06:52:35;0.2;47.6
78704;SHT31;68034;51.966;5.676;2024-01-10T06:55:08;0.2;47.8
78704;SHT31;68034;51.966;5.676;2024-01-10T06:57:37;0.2;47.1
78704;SHT31;68034;51.966;5.676;2024-01-10T07:00:12;0.2;47.9
78704;SHT31;68034;51.966;5.676;2024-01-10T07:02:53;0.2;46.7
78704;SHT31;68034;51.966;5.676;2024-01-10T07:05:27;0.2;47.7
78704;SHT31;68034;51.966;5.676;2024-01-10T07:08:02;0.3;46.8
78704;SHT31;68034;51.966;5.676;2024-01-10T07:10:36;0.5;47.9
78704;SHT31;68034;51.966;5.676;2024-01-10T07:13:11;0.6;46.8
78704;SHT31;68034;51.966;5.676;2024-01-10T07:15:41;0.7;47.1
78704;SHT31;68034;51.966;5.676;2024-01-10T07:18:10;0.8;47.5
78704;SHT31;68034;51.966;5.676;2024-01-10T07:20:39;0.8;46.6
78704;SHT31;68034;51.966;5.676;2024-01-10T07:23:08;0.8;46.1
78704;SHT31;68034;51.966;5.676;2024-01-10T07:25:37;0.8;46.0
78704;SHT31;68034;51.966;5.676;2024-01-10T07:28:06;0.8;46.3
78704;SHT31;68034;51.966;5.676;2024-01-10T07:30:35;0.8;46.9
78704;SHT31;68034;51.966;5.676;2024-01-10T07:33:04;0.7;46.8
78704;SHT31;68034;51.966;5.676;2024-01-10T07:35:42;0.7;47.0
78704;SHT31;68034;51.966;5.676;2024-01-10T07:38:10;0.8;46.7
78704;SHT31;68034;51.966;5.676;2024-01-10T07:40:39;0.7;46.9
78704;SHT31;68034;51.966;5.676;2024-01-10T07:43:20;0.8;46.7
78704;SHT31;68034;51.966;5.676;2024-01-10T07:45:56;0.9;47.6
78704;SHT31;68034;51.966;5.676;2024-01-10T07:48:30;1.1;45.5
78704;SHT31;68034;51.966;5.676;2024-01-10T07:50:59;1.2;45.6
78704;SHT31;68034;51.966;5.676;2024-01-10T07:53:28;1.3;44.7
78704;SHT31;68034;51.966;5.676;2024-01-10T07:55:56;1.4;44.8
78704;SHT31;68034;51.966;5.676;2024-01-10T07:58:25;1.5;44.4
78704;SHT31;68034;51.966;5.676;2024-01-10T08:00:54;1.5;43.8
78704;SHT31;68034;51.966;5.676;2024-01-10T08:03:23;1.5;45.0
78704;SHT31;68034;51.966;5.676;2024-01-10T08:05:51;1.5;43.8
78704;SHT31;68034;51.966;5.676;2024-01-10T08:08:22;1.5;44.0
78704;SHT31;68034;51.966;5.676;2024-01-10T08:10:51;1.5;43.1
78704;SHT31;68034;51.966;5.676;2024-01-10T08:13:20;1.5;43.7
78704;SHT31;68034;51.966;5.676;2024-01-10T08:15:49;1.5;44.2
78704;SHT31;68034;51.966;5.676;2024-01-10T08:18:18;1.5;43.7
78704;SHT31;68034;51.966;5.676;2024-01-10T08:20:47;1.4;43.3
78704;SHT31;68034;51.966;5.676;2024-01-10T08:23:16;1.4;44.0
78704;SHT31;68034;51.966;5.676;2024-01-10T08:25:45;1.4;43.8
78704;SHT31;68034;51.966;5.676;2024-01-10T08:28:14;1.4;43.4
78704;SHT31;68034;51.966;5.676;2024-01-10T08:30:52;1.5;43.6
78704;SHT31;68034;51.966;5.676;2024-01-10T08:33:21;1.7;43.4
78704;SHT31;68034;51.966;5.676;2024-01-10T08:35:50;1.8;42.8
78704;SHT31;68034;51.966;5.676;2024-01-10T08:38:19;1.8;42.6
78704;SHT31;68034;51.966;5.676;2024-01-10T08:40:48;1.8;41.8
78704;SHT31;68034;51.966;5.676;2024-01-10T08:43:17;1.9;42.0
78704;SHT31;68034;51.966;5.676;2024-01-10T08:45:46;1.8;42.5
78704;SHT31;68034;51.966;5.676;2024-01-10T08:48:14;1.8;42.6
78704;SHT31;68034;51.966;5.676;2024-01-10T08:50:43;1.8;42.2
78704;SHT31;68034;51.966;5.676;2024-01-10T08:53:12;1.8;42.3
78704;SHT31;68034;51.966;5.676;2024-01-10T08:55:44;1.8;41.1
78704;SHT31;68034;51.966;5.676;2024-01-10T08:58:14;1.7;42.1
78704;SHT31;68034;51.966;5.676;2024-01-10T09:00:43;1.7;42.2
78704;SHT31;68034;51.966;5.676;2024-01-10T09:03:13;1.7;42.4
78704;SHT31;68034;51.966;5.676;2024-01-10T09:05:44;1.7;42.2
78704;SHT31;68034;51.966;5.676;2024-01-10T09:08:13;1.7;42.0
78704;SHT31;68034;51.966;5.676;2024-01-10T09:10:43;1.7;42.1
78704;SHT31;68034;51.966;5.676;2024-01-10T09:13:12;1.7;42.1
78704;SHT31;68034;51.966;5.676;2024-01-10T09:15:41;1.7;42.7
78704;SHT31;68034;51.966;5.676;2024-01-10T09:18:10;1.7;42.2
78704;SHT31;68034;51.966;5.676;2024-01-10T09:20:40;1.8;42.3
78704;SHT31;68034;51.966;5.676;2024-01-10T09:23:11;1.8;41.6
78704;SHT31;68034;51.966;5.676;2024-01-10T09:25:40;1.8;42.5
78704;SHT31;68034;51.966;5.676;2024-01-10T09:28:09;1.8;42.2
78704;SHT31;68034;51.966;5.676;2024-01-10T09:30:38;1.9;41.8
78704;SHT31;68034;51.966;5.676;2024-01-10T09:33:07;1.9;41.3
78704;SHT31;68034;51.966;5.676;2024-01-10T09:35:36;2.0;41.1
78704;SHT31;68034;51.966;5.676;2024-01-10T09:38:06;2.0;40.7
78704;SHT31;68034;51.966;5.676;2024-01-10T09:40:35;2.0;40.8
78704;SHT31;68034;51.966;5.676;2024-01-10T09:43:05;2.1;40.7
78704;SHT31;68034;51.966;5.676;2024-01-10T09:45:42;2.1;40.3
78704;SHT31;68034;51.966;5.676;2024-01-10T09:48:17;2.2;40.5
78704;SHT31;68034;51.966;5.676;2024-01-10T09:50:50;2.2;39.7
78704;SHT31;68034;51.966;5.676;2024-01-10T09:53:22;2.3;40.1
78704;SHT31;68034;51.966;5.676;2024-01-10T09:55:53;2.3;39.6
78704;SHT31;68034;51.966;5.676;2024-01-10T09:58:26;2.4;39.3
78704;SHT31;68034;51.966;5.676;2024-01-10T10:00:55;2.4;39.3
78704;SHT31;68034;51.966;5.676;2024-01-10T10:03:24;2.5;39.1
78704;SHT31;68034;51.966;5.676;2024-01-10T10:05:55;2.5;39.1
78704;SHT31;68034;51.966;5.676;2024-01-10T10:08:24;2.6;39.2
78704;SHT31;68034;51.966;5.676;2024-01-10T10:10:52;2.6;38.3
78704;SHT31;68034;51.966;5.676;2024-01-10T10:13:30;2.7;38.0
78704;SHT31;68034;51.966;5.676;2024-01-10T10:16:03;2.7;37.8
78704;SHT31;68034;51.966;5.676;2024-01-10T10:18:32;2.7;37.4
78704;SHT31;68034;51.966;5.676;2024-01-10T10:21:11;2.8;36.4
78704;SHT31;68034;51.966;5.676;2024-01-10T10:23:59;2.8;37.3
78704;SHT31;68034;51.966;5.676;2024-01-10T10:26:28;2.8;37.6
78704;SHT31;68034;51.966;5.676;2024-01-10T10:28:57;2.8;37.0
78704;SHT31;68034;51.966;5.676;2024-01-10T10:31:27;2.8;36.3
78704;SHT31;68034;51.966;5.676;2024-01-10T10:33:59;2.8;36.9
78704;SHT31;68034;51.966;5.676;2024-01-10T10:36:29;2.8;37.7
78704;SHT31;68034;51.966;5.676;2024-01-10T10:38:59;2.9;37.2
78704;SHT31;68034;51.966;5.676;2024-01-10T10:41:32;3.0;37.0
78704;SHT31;68034;51.966;5.676;2024-01-10T10:44:11;3.0;37.2
78704;SHT31;68034;51.966;5.676;2024-01-10T10:46:43;3.1;36.3
78704;SHT31;68034;51.966;5.676;2024-01-10T10:49:17;3.1;37.3
78704;SHT31;68034;51.966;5.676;2024-01-10T10:51:50;3.2;36.8
78704;SHT31;68034;51.966;5.676;2024-01-10T10:54:22;3.3;36.8
78704;SHT31;68034;51.966;5.676;2024-01-10T10:56:57;3.3;36.8
78704;SHT31;68034;51.966;5.676;2024-01-10T10:59:31;3.3;36.4
78704;SHT31;68034;51.966;5.676;2024-01-10T11:02:01;3.3;35.6
78704;SHT31;68034;51.966;5.676;2024-01-10T11:04:30;3.3;36.5
78704;SHT31;68034;51.966;5.676;2024-01-10T11:07:00;3.3;37.5
78704;SHT31;68034;51.966;5.676;2024-01-10T11:09:30;3.3;37.8
78704;SHT31;68034;51.966;5.676;2024-01-10T11:12:14;3.3;38.7
78704;SHT31;68034;51.966;5.676;2024-01-10T11:14:59;3.3;38.1
78704;SHT31;68034;51.966;5.676;2024-01-10T11:17:56;3.3;36.6
78704;SHT31;68034;51.966;5.676;2024-01-10T11:20:43;3.3;37.4
78704;SHT31;68034;51.966;5.676;2024-01-10T11:23:37;3.3;36.4
78704;SHT31;68034;51.966;5.676;2024-01-10T11:26:08;3.4;37.5
78704;SHT31;68034;51.966;5.676;2024-01-10T11:28:39;3.4;37.0
78704;SHT31;68034;51.966;5.676;2024-01-10T11:31:09;3.4;37.6
78704;SHT31;68034;51.966;5.676;2024-01-10T11:33:39;3.4;38.1
78704;SHT31;68034;51.966;5.676;2024-01-10T11:36:12;3.4;38.1
78704;SHT31;68034;51.966;5.676;2024-01-10T11:38:45;3.4;39.3
78704;SHT31;68034;51.966;5.676;2024-01-10T11:41:23;3.5;36.6
78704;SHT31;68034;51.966;5.676;2024-01-10T11:44:29;3.5;37.8
78704;SHT31;68034;51.966;5.676;2024-01-10T11:46:59;3.5;37.2
78704;SHT31;68034;51.966;5.676;2024-01-10T11:49:28;3.5;38.3
78704;SHT31;68034;51.966;5.676;2024-01-10T11:51:58;3.5;38.8
78704;SHT31;68034;51.966;5.676;2024-01-10T11:54:38;3.5;38.9
78704;SHT31;68034;51.966;5.676;2024-01-10T11:57:13;3.5;39.0
78704;SHT31;68034;51.966;5.676;2024-01-10T11:59:44;3.5;38.9
78704;SHT31;68034;51.966;5.676;2024-01-10T12:02:14;3.5;38.1
78704;SHT31;68034;51.966;5.676;2024-01-10T12:04:43;3.5;38.6
78704;SHT31;68034;51.966;5.676;2024-01-10T12:07:14;3.5;37.6
78704;SHT31;68034;51.966;5.676;2024-01-10T12:09:43;3.6;39.1
78704;SHT31;68034;51.966;5.676;2024-01-10T12:12:13;3.7;38.0
78704;SHT31;68034;51.966;5.676;2024-01-10T12:14:42;3.8;38.2
78704;SHT31;68034;51.966;5.676;2024-01-10T12:17:14;3.9;37.7
78704;SHT31;68034;51.966;5.676;2024-01-10T12:19:45;4.1;37.3
78704;SHT31;68034;51.966;5.676;2024-01-10T12:22:16;4.2;37.0
78704;SHT31;68034;51.966;5.676;2024-01-10T12:24:48;4.4;37.3
78704;SHT31;68034;51.966;5.676;2024-01-10T12:27:18;4.5;36.0
78704;SHT31;68034;51.966;5.676;2024-01-10T12:29:50;4.6;36.2
78704;SHT31;68034;51.966;5.676;2024-01-10T12:32:20;4.7;36.6
78704;SHT31;68034;51.966;5.676;2024-01-10T12:34:53;4.9;35.7
78704;SHT31;68034;51.966;5.676;2024-01-10T12:37:25;4.9;35.5
78704;SHT31;68034;51.966;5.676;2024-01-10T12:39:57;5.0;35.5
78704;SHT31;68034;51.966;5.676;2024-01-10T12:42:26;5.1;34.4
78704;SHT31;68034;51.966;5.676;2024-01-10T12:44:55;5.1;35.1
78704;SHT31;68034;51.966;5.676;2024-01-10T12:47:25;5.2;35.3
78704;SHT31;68034;51.966;5.676;2024-01-10T12:49:54;5.3;35.3
78704;SHT31;68034;51.966;5.676;2024-01-10T12:52:23;5.3;35.3
78704;SHT31;68034;51.966;5.676;2024-01-10T12:54:53;5.4;35.4
78704;SHT31;68034;51.966;5.676;2024-01-10T12:57:22;5.4;35.3
78704;SHT31;68034;51.966;5.676;2024-01-10T13:02:42;5.5;34.9
78704;SHT31;68034;51.966;5.676;2024-01-10T13:05:13;5.5;34.9
78704;SHT31;68034;51.966;5.676;2024-01-10T13:07:42;5.6;35.1
78704;SHT31;68034;51.966;5.676;2024-01-10T13:10:12;5.6;36.0
78704;SHT31;68034;51.966;5.676;2024-01-10T13:12:43;5.7;35.4
78704;SHT31;68034;51.966;5.676;2024-01-10T13:15:12;5.7;35.7
78704;SHT31;68034;51.966;5.676;2024-01-10T13:17:41;5.7;34.9
78704;SHT31;68034;51.966;5.676;2024-01-10T13:20:11;5.8;35.1
78704;SHT31;68034;51.966;5.676;2024-01-10T13:22:40;5.8;35.5
78704;SHT31;68034;51.966;5.676;2024-01-10T13:25:09;5.9;34.5
78704;SHT31;68034;51.966;5.676;2024-01-10T13:27:39;5.9;35.5
78704;SHT31;68034;51.966;5.676;2024-01-10T13:30:09;5.9;35.5
78704;SHT31;68034;51.966;5.676;2024-01-10T13:32:38;6.0;34.9
78704;SHT31;68034;51.966;5.676;2024-01-10T13:35:08;6.0;34.8
78704;SHT31;68034;51.966;5.676;2024-01-10T13:37:36;6.0;34.0
78704;SHT31;68034;51.966;5.676;2024-01-10T13:40:06;6.0;34.5
78704;SHT31;68034;51.966;5.676;2024-01-10T13:42:36;6.1;34.2
78704;SHT31;68034;51.966;5.676;2024-01-10T13:45:06;6.1;34.4
78704;SHT31;68034;51.966;5.676;2024-01-10T13:47:35;6.1;34.2
78704;SHT31;68034;51.966;5.676;2024-01-10T13:50:05;6.1;34.0
78704;SHT31;68034;51.966;5.676;2024-01-10T13:52:35;6.1;33.5
78704;SHT31;68034;51.966;5.676;2024-01-10T13:55:07;6.1;33.3
78704;SHT31;68034;51.966;5.676;2024-01-10T13:57:36;6.1;33.8
78704;SHT31;68034;51.966;5.676;2024-01-10T14:00:08;6.2;33.3
78704;SHT31;68034;51.966;5.676;2024-01-10T14:02:43;6.2;32.8
78704;SHT31;68034;51.966;5.676;2024-01-10T14:05:14;6.2;33.0
78704;SHT31;68034;51.966;5.676;2024-01-10T14:07:43;6.2;33.7
78704;SHT31;68034;51.966;5.676;2024-01-10T14:10:15;6.2;33.4
78704;SHT31;68034;51.966;5.676;2024-01-10T14:12:45;6.2;33.1
78704;SHT31;68034;51.966;5.676;2024-01-10T14:15:14;6.3;32.9
78704;SHT31;68034;51.966;5.676;2024-01-10T14:17:43;6.3;32.7
78704;SHT31;68034;51.966;5.676;2024-01-10T14:20:12;6.3;32.7
78704;SHT31;68034;51.966;5.676;2024-01-10T14:22:41;6.2;33.0
78704;SHT31;68034;51.966;5.676;2024-01-10T14:25:10;6.2;33.9
78704;SHT31;68034;51.966;5.676;2024-01-10T14:27:42;6.2;32.9
78704;SHT31;68034;51.966;5.676;2024-01-10T14:30:11;6.2;33.9
78704;SHT31;68034;51.966;5.676;2024-01-10T14:32:42;6.1;33.1
78704;SHT31;68034;51.966;5.676;2024-01-10T14:35:16;6.1;32.4
78704;SHT31;68034;51.966;5.676;2024-01-10T14:37:47;6.0;33.2
78704;SHT31;68034;51.966;5.676;2024-01-10T14:40:18;6.0;32.9
78704;SHT31;68034;51.966;5.676;2024-01-10T14:42:53;5.8;33.5
78704;SHT31;68034;51.966;5.676;2024-01-10T14:45:24;5.8;33.5
78704;SHT31;68034;51.966;5.676;2024-01-10T14:47:59;5.7;33.7
78704;SHT31;68034;51.966;5.676;2024-01-10T14:50:34;5.6;34.5
78704;SHT31;68034;51.966;5.676;2024-01-10T14:58:03;5.2;35.9
78704;SHT31;68034;51.966;5.676;2024-01-10T15:01:30;5.1;35.4
78704;SHT31;68034;51.966;5.676;2024-01-10T15:04:01;4.9;35.4
78704;SHT31;68034;51.966;5.676;2024-01-10T15:19:21;4.6;36.5
78704;SHT31;68034;51.966;5.676;2024-01-10T15:23:39;4.5;36.5
78704;SHT31;68034;51.966;5.676;2024-01-10T15:34:24;4.0;38.4
78704;SHT31;68034;51.966;5.676;2024-01-10T15:38:53;3.8;38.5
78704;SHT31;68034;51.966;5.676;2024-01-10T15:41:51;3.7;40.7
78704;SHT31;68034;51.966;5.676;2024-01-10T15:44:24;3.7;40.3
78704;SHT31;68034;51.966;5.676;2024-01-10T15:51:12;3.4;43.5
78704;SHT31;68034;51.966;5.676;2024-01-10T15:53:42;3.4;41.5
78704;SHT31;68034;51.966;5.676;2024-01-10T15:56:12;3.3;42.2
78704;SHT31;68034;51.966;5.676;2024-01-10T15:58:41;3.2;43.2
78704;SHT31;68034;51.966;5.676;2024-01-10T16:01:10;3.2;44.3
78704;SHT31;68034;51.966;5.676;2024-01-10T16:03:40;3.1;43.8
78704;SHT31;68034;51.966;5.676;2024-01-10T16:06:11;3.1;42.2
78704;SHT31;68034;51.966;5.676;2024-01-10T16:08:47;3.0;42.6
78704;SHT31;68034;51.966;5.676;2024-01-10T16:11:16;3.0;42.3
78704;SHT31;68034;51.966;5.676;2024-01-10T16:13:45;2.9;40.9
78704;SHT31;68034;51.966;5.676;2024-01-10T16:16:15;2.9;41.6
78704;SHT31;68034;51.966;5.676;2024-01-10T16:19:08;2.9;42.8
78704;SHT31;68034;51.966;5.676;2024-01-10T16:21:38;2.8;41.7
78704;SHT31;68034;51.966;5.676;2024-01-10T16:24:07;2.8;44.1
78704;SHT31;68034;51.966;5.676;2024-01-10T16:26:36;2.8;43.5
78704;SHT31;68034;51.966;5.676;2024-01-10T16:29:05;2.8;42.2
78704;SHT31;68034;51.966;5.676;2024-01-10T16:31:35;2.7;44.0
78704;SHT31;68034;51.966;5.676;2024-01-10T16:34:04;2.7;45.4
78704;SHT31;68034;51.966;5.676;2024-01-10T16:36:34;2.7;45.3
78704;SHT31;68034;51.966;5.676;2024-01-10T16:39:03;2.6;45.7
78704;SHT31;68034;51.966;5.676;2024-01-10T16:41:32;2.6;45.9
78704;SHT31;68034;51.966;5.676;2024-01-10T16:44:01;2.6;46.2
78704;SHT31;68034;51.966;5.676;2024-01-10T16:46:29;2.6;46.0
78704;SHT31;68034;51.966;5.676;2024-01-10T16:49:01;2.5;46.0
78704;SHT31;68034;51.966;5.676;2024-01-10T16:51:30;2.5;46.6
78704;SHT31;68034;51.966;5.676;2024-01-10T16:54:00;2.5;45.4
78704;SHT31;68034;51.966;5.676;2024-01-10T16:56:28;2.5;46.0
78704;SHT31;68034;51.966;5.676;2024-01-10T16:58:58;2.5;47.0
78704;SHT31;68034;51.966;5.676;2024-01-10T17:01:26;2.4;46.8
78704;SHT31;68034;51.966;5.676;2024-01-10T17:03:58;2.4;46.2
78704;SHT31;68034;51.966;5.676;2024-01-10T17:06:27;2.4;46.5
78704;SHT31;68034;51.966;5.676;2024-01-10T17:08:56;2.4;46.6
78704;SHT31;68034;51.966;5.676;2024-01-10T17:11:25;2.4;46.2
78704;SHT31;68034;51.966;5.676;2024-01-10T17:13:55;2.4;47.3
78704;SHT31;68034;51.966;5.676;2024-01-10T17:16:25;2.3;46.4